Forside
METAR-TAF:

METAR-TAF

Lufthavne :

Fresno, Californien, USA

Breddekreds: 36-46-48N, længdekreds: 119-43-10W, højde: 101 m

Aktuelle vejr

Denne rapport blev lavet for 38 minutter siden, kl. 18:53 UTC
Vind 7 kt fra syd
Temperatur 17°C
Fugtighed 52%
Tryk 1017 hPa
Sigt: 16.1 km
Brudte skyer i en højde af 9000 ft
Brudte skyer i en højde af 11000 ft

METAR: KFAT 221853Z 18007KT 10SM BKN090 BKN110 17/07 A3002 RMK AO2 SLP165 T01720067

Tid: 11:31 (19:31 UTC)

Vejrudsigter

Denne rapport blev lavet for 1 time og 59 minutter siden, kl. 17:32 UTC
Foreløbig gælder fra 22 på 18 UTC til 23 på 18 UTC
Vind 4 kt fra varierende retninger
Sigt: 10 km
Spredte skyer i en højde af 7000 ft
Overskyet i en højde af 9000 ft
byger i nærheden
Fra 23 på 0100 UTC
Vind 4 kt fra varierende retninger
Sigt: 10 km
Spredte skyer i en højde af 10000 ft

TAF: KFAT 221732Z 2218/2318 VRB04KT P6SM VCSH SCT070 OVC090 FM230100 VRB04KT P6SM SCT100

Vejrobservationer og prognoser fra mere end 4000 lufthavne (METAR og TAF).

De gule og røde prikker repræsenterer de meteorologiske stationer.

Flyt musen over at se navnet på stationen.

Så klik over at se vejr observationer og prognoser.

At skifte det kort: Klik på de grønne knapper med et sort kors for at zoome ind; på den grønne knap med en bindestreg for at zoome ud; eller på de grønne pile for tilstødende kort.


METAR-TAF: